Time;durP1;ratioP1;P1;durP2;ratioP2;P2;SDS_P1;SDS_P2;PMS_P1;PMS_P2;Temp;Humidity;BMP_temperature;BMP_pressure;BME280_temperature;BME280_humidity;BME280_pressure;Samples;Min_cycle;Max_cycle;Signal;HPM_P1;HPM_P2
2021/12/01 00:00:48;;;;;;;12.90;5.60;;;;;;;1.65;100.00;97393.27;102000;1313;62366;-72
2021/12/01 00:03:14;;;;;;;21.30;8.50;;;;;;;1.66;100.00;97397.78;102137;1314;62191;-74
2021/12/01 00:05:41;;;;;;;20.70;9.00;;;;;;;1.66;100.00;97398.48;102321;1314;76878;-73
2021/12/01 00:08:08;;;;;;;15.30;7.70;;;;;;;1.65;100.00;97403.06;102329;1316;69291;-73
2021/12/01 00:10:37;;;;;;;19.70;8.60;;;;;;;1.66;100.00;97398.82;102284;1311;74255;-73
2021/12/01 00:13:06;;;;;;;15.30;7.30;;;;;;;1.67;100.00;97407.91;102302;1310;62000;-73
2021/12/01 00:15:33;;;;;;;12.90;7.60;;;;;;;1.67;100.00;97413.83;102360;1311;62179;-73
2021/12/01 00:18:00;;;;;;;12.90;7.80;;;;;;;1.69;100.00;97420.20;102335;1310;77235;-73
2021/12/01 00:20:27;;;;;;;18.90;10.00;;;;;;;1.70;100.00;97416.25;102106;1314;69428;-74
2021/12/01 00:22:55;;;;;;;16.20;9.40;;;;;;;1.73;100.00;97420.32;102280;1311;73571;-73
2021/12/01 00:25:23;;;;;;;14.70;7.80;;;;;;;1.73;100.00;97420.30;102301;1310;62170;-74
2021/12/01 00:27:51;;;;;;;16.40;7.80;;;;;;;1.77;100.00;97429.58;102360;1310;62162;-74
2021/12/01 00:30:19;;;;;;;19.90;7.90;;;;;;;1.80;100.00;97431.66;102343;1313;76220;-74
2021/12/01 00:32:46;;;;;;;13.50;6.20;;;;;;;1.84;100.00;97438.63;102327;1310;69798;-73
2021/12/01 00:35:14;;;;;;;14.30;6.90;;;;;;;1.89;100.00;97439.02;102387;1310;73157;-72
2021/12/01 00:37:42;;;;;;;12.90;5.80;;;;;;;1.93;100.00;97445.59;102085;1314;62221;-74
2021/12/01 00:40:11;;;;;;;14.40;4.40;;;;;;;1.97;100.00;97444.51;102443;1310;62050;-73
2021/12/01 00:42:39;;;;;;;12.50;5.00;;;;;;;2.01;100.00;97451.81;102419;1310;76505;-74
2021/12/01 00:45:11;;;;;;;7.60;2.80;;;;;;;2.04;99.76;97462.48;102351;1310;69314;-72
2021/12/01 00:47:43;;;;;;;9.70;2.90;;;;;;;2.09;99.82;97461.20;102165;1311;74087;-74
2021/12/01 00:50:13;;;;;;;7.40;3.20;;;;;;;2.10;99.88;97463.38;102598;1314;62125;-74
2021/12/01 00:52:39;;;;;;;7.80;3.10;;;;;;;2.12;99.06;97467.29;103482;1310;62108;-73
2021/12/01 00:55:08;;;;;;;7.80;2.90;;;;;;;2.17;98.06;97469.66;103807;1311;75415;-74
2021/12/01 00:57:35;;;;;;;6.70;2.90;;;;;;;2.22;98.02;97478.83;103473;1314;69547;-72
2021/12/01 01:00:07;;;;;;;6.90;2.80;;;;;;;2.26;97.75;97478.78;102351;1310;73247;-76
2021/12/01 01:02:34;;;;;;;9.00;2.50;;;;;;;2.28;97.69;97486.72;102458;1310;62174;-73
2021/12/01 01:05:03;;;;;;;10.90;3.70;;;;;;;2.31;96.42;97486.03;102420;1310;62215;-75
2021/12/01 01:07:29;;;;;;;10.60;3.10;;;;;;;2.34;96.92;97487.27;102252;1314;77232;-75
2021/12/01 01:09:59;;;;;;;10.30;2.80;;;;;;;2.34;96.56;97488.29;101840;1316;68906;-75
2021/12/01 01:18:08;;;;;;;5.00;2.10;;;;;;;2.47;94.50;97505.44;102341;1310;62102;-73
2021/12/01 01:20:35;;;;;;;4.60;2.00;;;;;;;2.49;94.68;97503.73;102128;1313;75737;-73
2021/12/01 01:23:02;;;;;;;4.80;2.00;;;;;;;2.50;94.07;97509.95;102334;1311;70239;-74
2021/12/01 01:25:31;;;;;;;4.80;1.70;;;;;;;2.53;93.28;97518.37;102312;1310;73385;-74
2021/12/01 01:27:57;;;;;;;5.90;2.10;;;;;;;2.57;93.05;97531.29;101965;1314;62361;-71
2021/12/01 01:30:24;;;;;;;5.80;1.90;;;;;;;2.60;93.12;97536.40;102320;1311;62196;-72
2021/12/01 01:32:52;;;;;;;7.30;2.30;;;;;;;2.60;92.44;97540.76;102276;1310;76290;-73
2021/12/01 01:35:18;;;;;;;9.60;2.80;;;;;;;2.61;92.69;97543.16;102335;1310;70254;-73
2021/12/01 01:37:45;;;;;;;5.80;2.50;;;;;;;2.62;91.54;97551.52;102282;1311;73464;-72
2021/12/01 01:40:13;;;;;;;6.50;2.50;;;;;;;2.64;91.73;97557.01;102270;1310;62141;-75
2021/12/01 01:42:40;;;;;;;9.10;2.80;;;;;;;2.67;91.51;97565.14;102373;1311;62185;-73
2021/12/01 01:45:07;;;;;;;6.30;2.20;;;;;;;2.68;91.39;97565.05;102400;1316;77216;-73
2021/12/01 01:47:35;;;;;;;6.00;1.90;;;;;;;2.68;91.60;97568.88;102454;1310;70319;-73
2021/12/01 01:52:34;;;;;;;4.60;1.70;;;;;;;2.68;91.56;97580.79;102097;1313;62305;-73
2021/12/01 01:55:02;;;;;;;4.50;1.80;;;;;;;2.70;91.08;97587.05;102304;1310;62165;-73
2021/12/01 01:57:29;;;;;;;5.40;2.10;;;;;;;2.70;91.29;97590.70;102392;1310;76733;-74
2021/12/01 01:59:55;;;;;;;4.10;2.00;;;;;;;2.71;90.48;97595.73;102295;1313;70906;-73
2021/12/01 02:02:22;;;;;;;5.00;1.80;;;;;;;2.71;90.34;97598.52;102190;1317;62427;-73
2021/12/01 02:04:49;;;;;;;3.10;1.20;;;;;;;2.72;89.97;97598.14;102315;1311;62088;-73
2021/12/01 02:07:15;;;;;;;7.90;1.90;;;;;;;2.74;89.09;97608.51;102379;1310;62030;-75
2021/12/01 02:09:43;;;;;;;3.10;1.50;;;;;;;2.76;89.74;97616.48;102031;1313;75278;-73
2021/12/01 02:12:10;;;;;;;2.60;1.30;;;;;;;2.76;89.73;97624.69;102454;1309;70726;-73
2021/12/01 02:14:37;;;;;;;2.80;1.30;;;;;;;2.77;89.36;97631.70;102469;1310;73232;-73
2021/12/01 02:17:04;;;;;;;4.00;1.30;;;;;;;2.76;88.86;97637.34;102331;1310;62126;-72
2021/12/01 02:19:30;;;;;;;5.10;1.70;;;;;;;2.77;88.35;97649.05;102265;1313;62196;-74
2021/12/01 02:21:57;;;;;;;2.60;1.50;;;;;;;2.78;87.86;97652.66;102332;1310;77339;-73
2021/12/01 02:24:24;;;;;;;2.50;1.40;;;;;;;2.77;88.28;97656.20;102331;1314;70368;-73
2021/12/01 02:26:51;;;;;;;1.30;0.80;;;;;;;2.76;87.84;97652.78;102265;1310;74454;-74
2021/12/01 02:29:22;;;;;;;1.70;0.90;;;;;;;2.74;87.54;97661.48;102266;1310;62140;-72
2021/12/01 02:31:50;;;;;;;;;;;;;;;2.73;86.91;97663.09;101997;1318;62307;-73
2021/12/01 02:34:20;;;;;;;2.90;1.00;;;;;;;2.73;86.63;97668.41;102529;1310;77379;-73
2021/12/01 02:36:50;;;;;;;4.00;1.50;;;;;;;2.71;87.01;97679.04;102364;1311;69468;-72
2021/12/01 02:39:17;;;;;;;2.10;0.90;;;;;;;2.68;86.53;97672.52;102146;1313;71654;-73
2021/12/01 02:41:49;;;;;;;2.20;1.10;;;;;;;2.66;87.05;97683.52;102310;1310;62388;-73
2021/12/01 02:44:17;;;;;;;3.30;1.20;;;;;;;2.62;87.30;97694.78;102350;1313;62105;-71
2021/12/01 02:46:45;;;;;;;3.90;1.30;;;;;;;2.58;87.59;97694.64;102363;1310;75040;-73
2021/12/01 02:49:12;;;;;;;2.60;0.90;;;;;;;2.54;87.81;97702.75;102380;1310;68647;-73
2021/12/01 02:51:39;;;;;;;3.80;1.30;;;;;;;2.48;88.26;97694.85;102378;1310;73380;-73
2021/12/01 02:54:07;;;;;;;3.70;1.60;;;;;;;2.42;88.92;97697.81;102363;1310;62222;-72
2021/12/01 02:56:35;;;;;;;4.80;1.70;;;;;;;2.37;89.15;97706.13;102431;1310;62558;-74
2021/12/01 02:59:04;;;;;;;2.30;1.40;;;;;;;2.34;89.25;97705.64;102017;1313;77313;-73
2021/12/01 03:01:31;;;;;;;5.20;2.00;;;;;;;2.32;89.51;97712.75;102592;1314;69557;-74
2021/12/01 03:04:00;;;;;;;2.30;1.90;;;;;;;2.30;89.97;97717.41;102428;1310;73508;-74
2021/12/01 03:06:27;;;;;;;5.40;1.60;;;;;;;2.25;90.66;97730.65;102529;1310;62149;-74
2021/12/01 03:08:56;;;;;;;3.30;1.70;;;;;;;2.18;91.05;97740.45;102656;1310;62221;-74
2021/12/01 03:11:24;;;;;;;4.00;2.10;;;;;;;2.12;91.44;97747.10;102472;1316;74963;-74
2021/12/01 03:13:52;;;;;;;3.60;2.00;;;;;;;2.07;91.81;97747.02;102738;1310;70486;-73
2021/12/01 03:16:19;;;;;;;1.90;1.30;;;;;;;2.03;92.22;97748.44;102865;1317;74356;-74
2021/12/01 03:18:46;;;;;;;2.30;1.60;;;;;;;1.97;92.71;97751.91;102950;1310;62139;-74
2021/12/01 03:21:13;;;;;;;3.70;1.90;;;;;;;1.92;92.93;97754.95;103226;1310;62083;-75
2021/12/01 03:23:40;;;;;;;5.00;2.50;;;;;;;1.89;93.10;97758.23;104255;1310;76261;-75
2021/12/01 03:26:08;;;;;;;3.70;3.00;;;;;;;1.88;93.35;97769.55;104403;1313;70969;-75
2021/12/01 03:28:35;;;;;;;3.00;2.10;;;;;;;1.86;93.54;97769.48;104073;1314;73438;-75
2021/12/01 03:31:02;;;;;;;4.70;2.20;;;;;;;1.83;93.75;97777.70;104318;1309;60934;-75
2021/12/01 03:33:28;;;;;;;4.10;2.20;;;;;;;1.82;93.95;97779.84;102466;1313;62224;-73
2021/12/01 03:35:55;;;;;;;5.50;2.70;;;;;;;1.81;94.10;97783.05;102326;1311;76491;-73
2021/12/01 03:38:26;;;;;;;4.00;2.40;;;;;;;1.79;94.14;97785.23;102382;1314;69412;-76
2021/12/01 03:40:56;;;;;;;5.20;2.20;;;;;;;1.80;94.22;97784.64;102440;1317;73967;-74
2021/12/01 03:43:23;;;;;;;6.10;2.40;;;;;;;1.83;94.04;97790.48;102363;1310;62158;-73
2021/12/01 03:45:50;;;;;;;6.10;4.10;;;;;;;1.85;93.89;97793.15;102067;1313;62411;-73
2021/12/01 03:48:17;;;;;;;4.30;2.90;;;;;;;1.88;93.87;97801.95;102292;1310;77346;-74
2021/12/01 03:50:49;;;;;;;3.00;2.60;;;;;;;1.91;93.66;97807.95;102278;1310;69415;-74
2021/12/01 03:53:18;;;;;;;5.10;1.70;;;;;;;1.93;93.58;97809.58;102280;1310;73235;-74
2021/12/01 03:55:45;;;;;;;2.80;1.80;;;;;;;1.94;93.42;97806.70;102383;1310;62123;-72
2021/12/01 03:58:12;;;;;;;2.90;2.10;;;;;;;1.95;93.38;97812.95;102313;1311;62565;-74
2021/12/01 04:00:39;;;;;;;2.30;2.10;;;;;;;1.95;93.38;97808.75;102324;1310;77241;-74
2021/12/01 04:03:06;;;;;;;2.70;1.80;;;;;;;1.96;93.30;97806.80;102383;1310;69625;-73
2021/12/01 04:05:33;;;;;;;3.40;1.80;;;;;;;1.96;93.32;97804.86;102298;1310;74440;-75
2021/12/01 04:08:01;;;;;;;3.90;2.20;;;;;;;1.96;93.12;97803.98;102319;1310;62487;-73
2021/12/01 04:10:29;;;;;;;1.90;1.70;;;;;;;1.96;93.27;97808.52;102338;1318;62137;-73
2021/12/01 04:12:56;;;;;;;3.90;1.70;;;;;;;1.95;93.19;97804.75;102324;1313;76435;-74
2021/12/01 04:15:23;;;;;;;1.50;1.30;;;;;;;1.93;93.25;97809.88;102360;1314;69925;-73
2021/12/01 04:17:50;;;;;;;2.10;1.70;;;;;;;1.91;93.37;97821.58;102037;1314;74471;-73
2021/12/01 04:20:18;;;;;;;2.30;1.60;;;;;;;1.89;93.47;97824.67;102250;1310;62133;-73
2021/12/01 04:22:47;;;;;;;2.20;1.40;;;;;;;1.86;93.73;97822.38;102346;1310;62206;-74
2021/12/01 04:25:14;;;;;;;2.30;1.30;;;;;;;1.82;93.67;97820.29;102534;1310;75936;-74
2021/12/01 04:27:41;;;;;;;2.80;1.70;;;;;;;1.80;93.81;97824.79;102368;1310;69512;-74
2021/12/01 04:30:11;;;;;;;1.90;1.50;;;;;;;1.77;93.89;97838.42;102312;1310;73315;-73
2021/12/01 04:32:39;;;;;;;2.10;1.80;;;;;;;1.74;94.04;97836.79;102013;1317;62308;-73
2021/12/01 04:35:07;;;;;;;4.60;1.80;;;;;;;1.71;94.16;97840.61;102061;1313;62114;-74
2021/12/01 04:37:35;;;;;;;3.00;1.90;;;;;;;1.68;94.47;97844.98;102383;1313;77292;-73
2021/12/01 04:40:04;;;;;;;2.80;1.90;;;;;;;1.63;94.56;97849.06;102349;1310;70465;-74
2021/12/01 04:42:32;;;;;;;4.30;2.10;;;;;;;1.59;94.87;97847.88;102242;1310;124384;-76
2021/12/01 04:44:59;;;;;;;2.90;1.80;;;;;;;1.54;94.95;97846.52;102399;1310;62115;-74
2021/12/01 04:47:29;;;;;;;2.90;1.70;;;;;;;1.52;95.14;97855.04;102467;1310;62257;-73
2021/12/01 04:49:56;;;;;;;;;;;;;;;1.48;95.38;97855.36;102418;1314;76501;-74
2021/12/01 04:52:23;;;;;;;4.40;2.10;;;;;;;1.44;95.65;97864.52;102521;1310;69435;-73
2021/12/01 04:54:50;;;;;;;5.10;2.60;;;;;;;1.42;95.64;97861.48;101986;1313;74779;-73
2021/12/01 04:57:17;;;;;;;2.80;2.10;;;;;;;1.39;95.97;97864.41;102309;1310;62222;-74
2021/12/01 04:59:45;;;;;;;3.30;2.40;;;;;;;1.37;96.06;97866.77;102323;1310;62109;-70
2021/12/01 05:02:12;;;;;;;6.30;3.70;;;;;;;1.37;96.19;97865.57;102293;1310;77354;-73
2021/12/01 05:04:41;;;;;;;6.50;4.20;;;;;;;1.36;96.41;97863.33;102269;1310;69962;-72
2021/12/01 05:07:10;;;;;;;5.40;3.30;;;;;;;1.37;96.50;97859.95;102295;1307;73028;-73
2021/12/01 05:09:37;;;;;;;5.30;3.40;;;;;;;1.37;96.60;97857.31;102312;1313;62627;-73
2021/12/01 05:12:07;;;;;;;6.30;3.60;;;;;;;1.37;96.48;97859.25;102355;1311;62069;-74
2021/12/01 05:14:38;;;;;;;5.70;4.30;;;;;;;1.37;96.55;97860.31;101901;1313;77363;-74
2021/12/01 05:17:06;;;;;;;7.70;5.40;;;;;;;1.36;96.66;97858.24;102292;1310;69182;-75
2021/12/01 05:19:34;;;;;;;6.50;5.80;;;;;;;1.36;96.77;97856.84;102285;1310;74541;-73
2021/12/01 05:22:02;;;;;;;8.80;7.30;;;;;;;1.36;96.81;97854.95;102315;1310;62108;-73
2021/12/01 05:24:29;;;;;;;11.20;6.50;;;;;;;1.33;96.78;97855.94;102223;1313;62326;-73
2021/12/01 05:26:55;;;;;;;7.40;5.10;;;;;;;1.29;96.80;97855.95;102298;1310;77168;-72
2021/12/01 05:29:23;;;;;;;10.20;7.00;;;;;;;1.24;97.00;97864.05;101970;1313;69112;-74
2021/12/01 05:31:53;;;;;;;8.40;5.40;;;;;;;1.20;97.22;97863.05;102026;1314;74621;-73
2021/12/01 05:34:19;;;;;;;9.30;5.00;;;;;;;1.16;97.27;97860.79;102324;1310;62119;-73
2021/12/01 05:36:47;;;;;;;7.30;4.90;;;;;;;1.14;97.45;97862.61;102268;1311;62339;-73
2021/12/01 05:39:13;;;;;;;8.10;6.40;;;;;;;1.14;97.58;97858.26;101944;1313;76288;-72
2021/12/01 05:41:40;;;;;;;10.70;6.30;;;;;;;1.15;97.55;97852.77;102267;1310;70624;-74
2021/12/01 05:44:07;;;;;;;6.50;5.90;;;;;;;1.17;97.66;97847.42;102249;1310;74863;-73
2021/12/01 05:46:34;;;;;;;9.60;5.60;;;;;;;1.20;97.52;97839.77;102340;1310;62483;-73
2021/12/01 05:49:02;;;;;;;9.40;5.40;;;;;;;1.23;97.53;97842.10;102335;1310;62025;-74
2021/12/01 05:51:28;;;;;;;9.60;5.90;;;;;;;1.24;97.54;97843.95;102313;1310;75735;-73
2021/12/01 05:53:55;;;;;;;8.90;5.30;;;;;;;1.25;97.52;97851.09;102350;1310;70897;-75
2021/12/01 05:56:22;;;;;;;6.40;5.50;;;;;;;1.27;97.46;97842.79;102310;1310;74522;-75
2021/12/01 05:58:48;;;;;;;9.50;6.80;;;;;;;1.28;97.36;97839.90;102385;1313;62215;-74
2021/12/01 06:01:15;;;;;;;7.30;5.90;;;;;;;1.30;97.41;97842.26;102324;1310;62349;-74
2021/12/01 06:03:43;;;;;;;8.80;5.90;;;;;;;1.32;97.27;97842.33;102419;1310;75210;-74
2021/12/01 06:06:10;;;;;;;6.50;5.20;;;;;;;1.34;97.25;97839.11;102091;1313;69526;-74
2021/12/01 06:08:37;;;;;;;8.10;5.80;;;;;;;1.35;97.30;97847.30;103455;1310;73395;-75
2021/12/01 06:11:03;;;;;;;7.70;5.30;;;;;;;1.35;97.16;97841.84;103549;1313;62225;-73
2021/12/01 06:13:30;;;;;;;9.30;7.00;;;;;;;1.36;97.06;97840.76;103844;1310;61996;-75
2021/12/01 06:15:57;;;;;;;10.00;6.10;;;;;;;1.38;97.01;97836.48;102460;1310;76088;-73
2021/12/01 06:18:23;;;;;;;10.60;6.30;;;;;;;1.39;96.83;97831.17;102147;1313;68414;-73
2021/12/01 06:20:50;;;;;;;10.00;5.90;;;;;;;1.40;96.92;97834.80;102517;1310;74503;-73
2021/12/01 06:23:17;;;;;;;9.80;6.10;;;;;;;1.40;96.85;97832.70;102506;1310;62124;-73
2021/12/01 06:25:43;;;;;;;7.10;4.80;;;;;;;1.41;96.90;97833.89;101962;1314;62057;-75
2021/12/01 06:28:10;;;;;;;8.20;5.20;;;;;;;1.41;96.86;97840.88;102322;1310;77176;-73
2021/12/01 06:30:38;;;;;;;9.30;5.30;;;;;;;1.42;96.80;97845.73;101912;1314;68568;-73
2021/12/01 06:33:05;;;;;;;10.20;5.90;;;;;;;1.43;96.76;97845.17;102373;1310;73531;-74
2021/12/01 06:35:34;;;;;;;14.50;8.50;;;;;;;1.44;96.64;97848.59;102337;1314;62153;-74
2021/12/01 06:38:01;;;;;;;18.90;10.00;;;;;;;1.45;96.76;97850.13;102369;1317;62755;-74
2021/12/01 06:40:28;;;;;;;15.90;11.40;;;;;;;1.48;96.73;97853.31;102082;1317;75849;-74
2021/12/01 06:42:55;;;;;;;18.80;11.50;;;;;;;1.50;96.69;97851.44;102312;1311;70212;-73
2021/12/01 06:45:22;;;;;;;20.60;11.00;;;;;;;1.53;96.71;97855.34;102332;1310;74548;-73
2021/12/01 06:47:49;;;;;;;18.10;11.10;;;;;;;1.57;96.58;97864.10;102263;1310;62645;-74
2021/12/01 06:50:16;;;;;;;13.80;8.90;;;;;;;1.60;96.71;97860.97;102405;1310;62196;-75
2021/12/01 06:52:43;;;;;;;22.60;13.20;;;;;;;1.62;96.71;97859.42;102438;1311;75872;-74
2021/12/01 06:55:10;;;;;;;26.70;16.90;;;;;;;1.65;96.63;97854.03;101924;1314;68031;-74
2021/12/01 06:57:37;;;;;;;34.40;20.50;;;;;;;1.69;96.57;97847.55;102312;1311;74881;-73
2021/12/01 07:00:11;;;;;;;38.70;22.70;;;;;;;1.72;96.54;97849.65;102341;1310;62031;-75
2021/12/01 07:02:38;;;;;;;39.80;21.90;;;;;;;1.76;96.44;97852.29;102502;1310;62098;-75
2021/12/01 07:05:06;;;;;;;57.20;31.60;;;;;;;1.79;96.40;97848.66;102348;1310;76322;-74
2021/12/01 07:07:32;;;;;;;77.00;38.90;;;;;;;1.81;96.32;97847.14;101837;1316;70195;-73
2021/12/01 07:09:59;;;;;;;54.20;29.80;;;;;;;1.83;96.31;97843.54;102346;1310;73274;-74
2021/12/01 07:12:26;;;;;;;39.70;21.90;;;;;;;1.86;96.23;97844.23;102086;1310;62321;-73
2021/12/01 07:14:52;;;;;;;31.10;17.70;;;;;;;1.88;96.09;97842.90;102370;1310;62192;-74
2021/12/01 07:17:19;;;;;;;28.30;17.20;;;;;;;1.90;96.01;97838.98;102363;1310;76012;-72
2021/12/01 07:19:48;;;;;;;40.90;22.30;;;;;;;1.91;95.90;97829.30;101963;1314;67739;-75
2021/12/01 07:22:15;;;;;;;37.30;23.00;;;;;;;1.93;95.81;97819.01;102416;1310;73344;-73
2021/12/01 07:24:43;;;;;;;35.90;21.70;;;;;;;1.96;95.65;97815.70;102080;1313;62107;-74
2021/12/01 07:27:10;;;;;;;45.20;24.70;;;;;;;2.02;95.62;97813.50;102576;1311;62479;-73
2021/12/01 07:29:37;;;;;;;41.70;23.30;;;;;;;2.07;95.54;97810.23;102070;1318;76467;-72
2021/12/01 07:32:05;;;;;;;47.30;25.30;;;;;;;2.13;95.52;97802.90;102372;1309;67089;-74
2021/12/01 07:34:31;;;;;;;54.00;25.60;;;;;;;2.21;95.51;97800.39;102340;1313;73420;-74
2021/12/01 07:36:58;;;;;;;36.70;19.70;;;;;;;2.29;95.40;97790.54;102317;1313;62130;-75
2021/12/01 07:39:24;;;;;;;30.40;19.00;;;;;;;2.35;95.26;97783.02;102373;1310;62218;-75
2021/12/01 07:41:51;;;;;;;35.90;19.20;;;;;;;2.40;95.11;97777.13;102315;1310;77488;-72
2021/12/01 07:44:18;;;;;;;39.90;18.90;;;;;;;2.47;95.09;97771.87;102386;1310;69396;-74
2021/12/01 07:46:46;;;;;;;33.70;17.90;;;;;;;2.53;95.01;97772.79;102321;1314;71829;-75
2021/12/01 07:49:13;;;;;;;34.80;17.00;;;;;;;2.58;94.92;97769.52;102343;1310;62124;-73
2021/12/01 07:51:39;;;;;;;27.60;16.40;;;;;;;2.63;94.87;97761.37;102461;1313;62096;-73
2021/12/01 07:54:06;;;;;;;28.90;16.10;;;;;;;2.67;94.80;97753.94;102328;1313;76769;-73
2021/12/01 07:56:33;;;;;;;33.30;16.70;;;;;;;2.73;94.78;97746.96;102404;1311;70572;-73
2021/12/01 07:58:59;;;;;;;31.70;17.10;;;;;;;2.76;94.63;97745.91;102416;1311;62116;-74
2021/12/01 08:01:26;;;;;;;33.70;16.70;;;;;;;2.79;94.58;97742.92;102373;1310;62022;-73
2021/12/01 08:03:53;;;;;;;35.10;16.60;;;;;;;2.82;94.37;97744.73;102389;1310;62218;-73
2021/12/01 08:06:20;;;;;;;27.60;14.20;;;;;;;2.84;94.41;97739.51;102350;1311;77227;-73
2021/12/01 08:08:46;;;;;;;22.80;12.70;;;;;;;2.85;94.38;97739.07;102323;1314;70263;-73
2021/12/01 08:11:13;;;;;;;27.90;13.80;;;;;;;2.86;94.32;97733.60;102334;1310;73387;-72
2021/12/01 08:13:40;;;;;;;22.40;12.90;;;;;;;2.87;94.24;97727.41;101977;1315;62164;-73
2021/12/01 08:16:06;;;;;;;22.50;12.80;;;;;;;2.88;93.96;97720.73;102328;1316;62225;-73
2021/12/01 08:18:33;;;;;;;22.00;12.90;;;;;;;2.89;93.89;97722.73;102340;1310;77303;-72
2021/12/01 08:21:00;;;;;;;22.30;12.30;;;;;;;2.94;93.90;97724.23;102351;1310;70013;-74
2021/12/01 08:23:27;;;;;;;24.50;12.70;;;;;;;3.00;93.95;97721.59;102360;1310;74270;-74
2021/12/01 08:25:53;;;;;;;20.50;13.20;;;;;;;3.04;93.91;97724.69;102311;1310;62139;-74
2021/12/01 08:28:20;;;;;;;19.80;11.10;;;;;;;3.12;93.90;97722.46;102320;1311;62126;-75
2021/12/01 08:30:47;;;;;;;23.70;12.70;;;;;;;3.19;93.73;97719.98;102362;1310;76306;-74
2021/12/01 08:33:13;;;;;;;22.70;10.60;;;;;;;3.23;93.59;97723.62;102138;1313;70424;-74
2021/12/01 08:35:40;;;;;;;20.20;10.50;;;;;;;3.24;93.40;97720.23;102369;1310;73055;-80
2021/12/01 08:38:07;;;;;;;17.60;10.10;;;;;;;3.25;93.28;97723.48;102308;1316;62252;-73
2021/12/01 08:40:34;;;;;;;22.80;11.10;;;;;;;3.27;93.06;97715.13;102440;1311;62222;-72
2021/12/01 08:43:00;;;;;;;20.70;10.80;;;;;;;3.29;93.01;97703.21;102498;1310;77074;-83
2021/12/01 08:45:27;;;;;;;26.80;12.30;;;;;;;3.34;93.14;97702.60;103035;1310;67493;-80
2021/12/01 08:47:54;;;;;;;23.60;13.50;;;;;;;3.39;92.74;97702.70;102496;1310;72934;-81
2021/12/01 08:50:20;;;;;;;28.30;14.60;;;;;;;3.42;92.65;97700.39;102411;1310;62129;-79
2021/12/01 08:52:48;;;;;;;23.60;14.40;;;;;;;3.46;92.61;97698.21;102525;1310;61994;-83
2021/12/01 08:55:15;;;;;;;23.20;14.10;;;;;;;3.49;92.22;97695.24;102089;1316;77298;-83
2021/12/01 08:57:42;;;;;;;26.40;14.60;;;;;;;3.52;92.20;97687.16;102678;1310;69377;-79
2021/12/01 09:00:09;;;;;;;25.90;14.10;;;;;;;3.60;92.30;97684.59;102584;1310;74323;-78
2021/12/01 09:02:36;;;;;;;23.90;13.60;;;;;;;3.67;92.28;97680.45;102762;1310;62119;-86
2021/12/01 09:05:03;;;;;;;24.20;13.60;;;;;;;3.77;92.13;97676.52;103252;1310;62205;-83
2021/12/01 09:07:30;;;;;;;26.20;14.10;;;;;;;3.87;91.91;97677.29;103077;1316;74297;-87
2021/12/01 09:09:56;;;;;;;19.50;11.50;;;;;;;3.94;91.80;97678.95;103545;1310;69814;-85
2021/12/01 09:12:23;;;;;;;20.50;12.20;;;;;;;3.97;91.25;97677.09;103225;1310;73784;-83
2021/12/01 09:14:52;;;;;;;21.30;12.10;;;;;;;3.98;91.19;97674.02;103248;1311;62130;-83
2021/12/01 09:17:19;;;;;;;22.50;11.90;;;;;;;3.97;90.93;97666.84;103366;1316;62287;-84
2021/12/01 09:19:45;;;;;;;22.70;12.80;;;;;;;3.98;90.81;97660.13;103958;1310;75670;-85
2021/12/01 09:22:12;;;;;;;19.60;11.70;;;;;;;4.04;90.61;97652.36;103836;1310;69804;-83
2021/12/01 09:24:39;;;;;;;20.80;12.10;;;;;;;4.13;90.53;97642.86;102784;1316;74712;-74
2021/12/01 09:27:06;;;;;;;16.70;10.20;;;;;;;4.24;90.28;97640.77;103011;1310;62199;-75
2021/12/01 09:29:33;;;;;;;17.80;10.80;;;;;;;4.32;89.70;97631.98;103101;1311;62134;-74
2021/12/01 09:32:01;;;;;;;17.50;11.00;;;;;;;4.38;89.39;97630.91;103885;1314;77321;-76
2021/12/01 09:34:27;;;;;;;14.60;8.90;;;;;;;4.45;89.05;97626.28;104021;1314;70378;-75
2021/12/01 09:36:56;;;;;;;19.30;10.40;;;;;;;4.54;88.71;97627.43;104557;1310;73414;-74
2021/12/01 09:39:24;;;;;;;18.30;10.10;;;;;;;4.64;88.34;97624.48;104560;1311;62072;-74
2021/12/01 09:41:52;;;;;;;20.40;10.10;;;;;;;4.72;88.17;97628.02;104450;1310;62005;-72
2021/12/01 09:44:19;;;;;;;17.30;8.70;;;;;;;4.78;88.12;97625.70;102354;1313;76633;-74
2021/12/01 09:46:45;;;;;;;16.40;8.70;;;;;;;4.80;87.76;97626.98;102539;1314;69181;-73
2021/12/01 09:49:12;;;;;;;11.90;7.50;;;;;;;4.78;87.21;97629.73;102503;1311;73424;-73
2021/12/01 09:51:40;;;;;;;13.10;6.30;;;;;;;4.80;86.66;97626.93;102461;1310;62132;-74
2021/12/01 09:54:07;;;;;;;11.10;6.60;;;;;;;4.85;86.64;97624.70;102522;1314;62105;-74
2021/12/01 09:56:33;;;;;;;11.70;5.80;;;;;;;4.96;86.39;97617.10;102265;1314;76253;-73
2021/12/01 09:59:01;;;;;;;10.40;5.50;;;;;;;5.10;86.15;97613.73;102371;1310;69460;-74
2021/12/01 10:01:29;;;;;;;12.00;6.30;;;;;;;5.22;85.47;97600.95;102388;1310;74699;-74
2021/12/01 10:03:56;;;;;;;11.60;5.60;;;;;;;5.32;85.37;97600.30;102551;1310;62709;-73
2021/12/01 10:06:26;;;;;;;15.60;7.40;;;;;;;5.41;84.94;97599.64;102522;1310;62018;-73
2021/12/01 10:09:00;;;;;;;11.80;5.90;;;;;;;5.51;85.04;97595.80;102558;1313;77210;-74
2021/12/01 10:11:33;;;;;;;12.80;6.20;;;;;;;5.60;85.02;97592.85;102357;1310;69828;-74
2021/12/01 10:14:05;;;;;;;9.70;5.30;;;;;;;5.68;84.56;97584.73;102338;1310;74489;-74
2021/12/01 10:16:35;;;;;;;9.80;5.20;;;;;;;5.75;84.57;97583.91;102391;1310;62117;-72
2021/12/01 10:19:06;;;;;;;8.70;4.60;;;;;;;5.83;84.03;97584.06;102372;1310;62796;-74
2021/12/01 10:21:42;;;;;;;10.60;4.80;;;;;;;5.86;83.69;97579.98;102518;1311;77339;-74
2021/12/01 10:24:15;;;;;;;9.20;5.30;;;;;;;5.88;83.66;97580.90;102372;1309;69324;-74
2021/12/01 10:26:54;;;;;;;10.20;5.00;;;;;;;5.89;83.53;97579.21;102426;1314;74213;-73
2021/12/01 10:29:34;;;;;;;11.60;5.40;;;;;;;5.90;83.28;97576.36;102441;1311;62090;-73
2021/12/01 10:32:15;;;;;;;11.40;5.50;;;;;;;5.90;83.24;97573.70;102159;1314;62337;-74
2021/12/01 10:34:44;;;;;;;;;;;;;;;5.88;83.32;97568.36;102492;1314;76779;-73
2021/12/01 10:37:13;;;;;;;17.90;8.10;;;;;;;5.83;83.54;97560.94;102422;1310;70260;-74
2021/12/01 10:40:08;;;;;;;12.00;6.10;;;;;;;5.83;83.90;97555.31;102095;1317;72344;-74
2021/12/01 10:43:01;;;;;;;12.00;5.20;;;;;;;5.84;83.58;97553.67;102332;1311;62213;-74
2021/12/01 10:45:40;;;;;;;11.20;5.10;;;;;;;5.91;83.90;97546.14;102337;1310;62118;-73
2021/12/01 10:48:10;;;;;;;7.50;4.40;;;;;;;5.91;84.21;97533.27;102164;1310;77837;-73
2021/12/01 10:50:41;;;;;;;11.80;6.10;;;;;;;5.96;84.30;97530.65;102142;1317;68872;-75
2021/12/01 10:53:13;;;;;;;9.70;5.60;;;;;;;6.01;84.54;97524.34;102360;1310;73564;-74
2021/12/01 10:55:45;;;;;;;9.50;5.20;;;;;;;6.07;85.00;97512.77;102344;1311;62121;-74
2021/12/01 10:58:15;;;;;;;9.30;5.40;;;;;;;6.10;85.11;97513.60;102340;1313;62217;-74
2021/12/01 11:00:48;;;;;;;9.80;5.60;;;;;;;6.09;85.32;97512.25;102437;1311;76704;-74
2021/12/01 11:03:15;;;;;;;9.70;6.40;;;;;;;6.08;85.11;97508.83;102363;1313;70399;-74
2021/12/01 11:05:47;;;;;;;7.50;3.80;;;;;;;6.03;84.92;97503.52;102273;1316;73421;-73
2021/12/01 11:08:22;;;;;;;5.40;3.30;;;;;;;5.98;84.91;97496.67;102334;1310;62206;-73
2021/12/01 11:10:55;;;;;;;5.20;3.30;;;;;;;5.90;84.94;97497.14;102356;1311;62230;-74
2021/12/01 11:13:23;;;;;;;7.20;4.20;;;;;;;5.91;85.18;97491.45;102431;1313;77346;-74
2021/12/01 11:15:53;;;;;;;12.00;6.10;;;;;;;5.91;85.13;97484.95;102424;1314;69790;-74
2021/12/01 11:18:26;;;;;;;8.40;5.30;;;;;;;5.89;85.60;97481.20;102429;1310;74691;-73
2021/12/01 11:20:58;;;;;;;10.20;6.10;;;;;;;5.84;85.62;97478.40;102021;1318;62281;-74
2021/12/01 11:23:31;;;;;;;8.60;5.50;;;;;;;5.79;85.75;97475.44;102510;1311;62044;-75
2021/12/01 11:26:04;;;;;;;7.90;5.10;;;;;;;5.75;85.86;97470.08;103132;1310;77315;-76
2021/12/01 11:28:33;;;;;;;8.30;4.40;;;;;;;5.72;86.04;97466.06;103096;1316;70509;-79
2021/12/01 11:31:05;;;;;;;8.00;4.60;;;;;;;5.67;86.04;97459.02;104729;1310;70563;-79
2021/12/01 11:33:33;;;;;;;5.80;3.60;;;;;;;5.62;86.12;97455.85;102471;1313;62318;-80
2021/12/01 11:36:08;;;;;;;6.80;4.10;;;;;;;5.60;86.25;97448.80;102572;1311;61986;-78
2021/12/01 11:38:35;;;;;;;9.40;6.30;;;;;;;5.62;86.53;97447.01;102703;1311;77290;-82